createdAt,value
2022-10-14T00:02:06.667Z,94.30
2022-10-14T00:04:13.766Z,94.30
2022-10-14T00:06:22.433Z,94.70
2022-10-14T00:08:29.719Z,94.60
2022-10-14T00:10:43.041Z,94.40
2022-10-14T00:12:51.403Z,94.40
2022-10-14T00:14:58.740Z,94.20
2022-10-14T00:17:05.663Z,93.60
2022-10-14T00:19:13.207Z,93.10
2022-10-14T00:21:20.350Z,93.00
2022-10-14T00:23:27.977Z,92.70
2022-10-14T00:25:34.900Z,92.50
2022-10-14T00:27:43.825Z,92.20
2022-10-14T00:29:51.618Z,91.70
2022-10-14T00:31:58.853Z,91.20
2022-10-14T00:34:06.651Z,90.80
2022-10-14T00:36:16.593Z,90.40
2022-10-14T00:38:23.468Z,90.20
2022-10-14T00:40:30.394Z,89.90
2022-10-14T00:42:37.833Z,89.60
2022-10-14T00:45:09.078Z,89.00
2022-10-14T00:47:16.671Z,88.30
2022-10-14T00:49:27.181Z,88.00
2022-10-14T00:51:34.565Z,87.30
2022-10-14T00:53:42.515Z,87.10
2022-10-14T00:55:51.132Z,86.60
2022-10-14T00:57:58.003Z,86.40
2022-10-14T01:00:12.508Z,86.40
2022-10-14T01:02:19.332Z,85.60
2022-10-14T01:04:26.359Z,85.80
2022-10-14T01:06:49.414Z,85.80
2022-10-14T01:09:03.300Z,84.50
2022-10-14T01:11:16.495Z,84.90
2022-10-14T01:13:31.081Z,84.70
2022-10-14T01:15:48.194Z,84.60
2022-10-14T01:18:05.153Z,85.00
2022-10-14T01:20:43.617Z,85.00
2022-10-14T01:23:00.273Z,84.70
2022-10-14T01:25:17.440Z,85.10
2022-10-14T01:27:53.144Z,85.10
2022-10-14T01:30:14.964Z,84.70
2022-10-14T01:32:27.273Z,84.30
2022-10-14T01:34:41.819Z,80.10
2022-10-14T01:36:52.180Z,80.00
2022-10-14T01:39:03.556Z,80.20
2022-10-14T01:41:18.677Z,76.50
2022-10-14T01:43:30.774Z,77.40
2022-10-14T01:45:42.463Z,78.40
2022-10-14T01:47:59.216Z,78.20
2022-10-14T01:50:12.026Z,78.30
2022-10-14T01:52:23.902Z,79.50
2022-10-14T01:54:36.142Z,80.40
2022-10-14T01:56:48.270Z,79.80
2022-10-14T01:58:58.212Z,77.70
2022-10-14T02:01:16.919Z,78.60
2022-10-14T02:03:25.938Z,79.60
2022-10-14T02:05:39.726Z,79.20
2022-10-14T02:07:49.168Z,78.90
2022-10-14T02:10:13.500Z,77.90
2022-10-14T02:12:43.922Z,70.10
2022-10-14T02:15:11.297Z,68.30
2022-10-14T02:17:39.574Z,70.10
2022-10-14T02:19:52.728Z,71.10
2022-10-14T02:22:10.096Z,68.20
2022-10-14T02:24:24.649Z,69.40
2022-10-14T02:26:33.160Z,64.60
2022-10-14T02:28:51.628Z,64.80
2022-10-14T02:31:03.461Z,65.10
2022-10-14T02:33:12.813Z,64.40
2022-10-14T02:35:33.940Z,64.60
2022-10-14T02:37:44.195Z,63.90
2022-10-14T02:39:58.288Z,64.40
2022-10-14T02:42:05.623Z,63.60
2022-10-14T02:44:14.135Z,60.20
2022-10-14T02:46:24.079Z,61.20
2022-10-14T02:48:33.160Z,62.60
2022-10-14T02:50:40.544Z,63.30
2022-10-14T02:52:47.672Z,59.90
2022-10-14T02:54:54.652Z,62.90
2022-10-14T02:57:02.549Z,60.50
2022-10-14T02:59:09.629Z,61.90
2022-10-14T03:01:18.002Z,61.30
2022-10-14T03:03:24.965Z,63.30
2022-10-14T03:05:34.045Z,63.80
2022-10-14T03:07:43.783Z,62.70
2022-10-14T03:09:53.989Z,62.40
2022-10-14T03:12:03.471Z,62.10
2022-10-14T03:14:10.397Z,63.30
2022-10-14T03:16:17.784Z,61.90
2022-10-14T03:18:25.324Z,61.30
2022-10-14T03:20:40.133Z,62.20
2022-10-14T03:22:52.697Z,62.60
2022-10-14T03:24:59.874Z,60.20
2022-10-14T03:27:18.014Z,61.80
2022-10-14T03:29:29.698Z,62.20
2022-10-14T03:31:45.843Z,62.70
2022-10-14T03:34:06.691Z,62.90
2022-10-14T03:36:17.719Z,62.40
2022-10-14T03:38:27.557Z,61.10
2022-10-14T03:40:38.627Z,62.40
2022-10-14T03:42:48.884Z,62.00
2022-10-14T03:44:56.166Z,60.10
2022-10-14T03:47:07.650Z,59.20
2022-10-14T03:49:15.602Z,60.50
2022-10-14T03:51:24.984Z,60.10
2022-10-14T03:53:40.359Z,60.00
2022-10-14T03:55:47.589Z,59.90
2022-10-14T03:57:54.976Z,59.90
2022-10-14T04:00:02.799Z,60.80
2022-10-14T04:02:23.026Z,57.60
2022-10-14T04:04:33.571Z,57.50
2022-10-14T04:06:43.054Z,55.40
2022-10-14T04:08:50.135Z,56.40
2022-10-14T04:11:08.071Z,56.40
2022-10-14T04:13:18.988Z,57.10
2022-10-14T04:15:26.070Z,55.30
2022-10-14T04:17:45.570Z,54.30
2022-10-14T04:19:55.179Z,55.50
2022-10-14T04:22:04.201Z,54.80
2022-10-14T04:24:13.685Z,52.70
2022-10-14T04:26:25.531Z,55.20
2022-10-14T04:28:32.782Z,52.90
2022-10-14T04:30:47.877Z,53.30
2022-10-14T04:33:02.590Z,51.80
2022-10-14T04:35:10.893Z,52.40
2022-10-14T04:37:24.735Z,53.20
2022-10-14T04:39:39.392Z,54.00
2022-10-14T04:41:47.183Z,51.30
2022-10-14T04:43:57.849Z,53.30
2022-10-14T04:46:10.457Z,51.80
2022-10-14T04:48:18.564Z,51.50
2022-10-14T04:50:25.641Z,48.20
2022-10-14T04:52:46.439Z,49.50
2022-10-14T04:54:53.672Z,49.90
2022-10-14T04:57:12.581Z,50.40
2022-10-14T04:59:20.118Z,50.00
2022-10-14T05:01:46.680Z,51.50
2022-10-14T05:03:54.040Z,51.60
2022-10-14T05:06:01.129Z,49.70
2022-10-14T05:08:11.479Z,52.70
2022-10-14T05:10:21.426Z,52.70
2022-10-14T05:12:30.498Z,49.30
2022-10-14T05:14:41.116Z,50.20
2022-10-14T05:16:58.022Z,50.10
2022-10-14T05:19:09.096Z,49.80
2022-10-14T05:21:24.058Z,50.00
2022-10-14T05:23:39.327Z,48.50
2022-10-14T05:25:47.380Z,49.10
2022-10-14T05:27:54.714Z,49.20
2022-10-14T05:30:01.692Z,49.50
2022-10-14T05:32:09.744Z,49.20
2022-10-14T05:34:36.332Z,48.80
2022-10-14T05:36:45.513Z,53.70
2022-10-14T05:38:56.785Z,50.20
2022-10-14T05:41:04.071Z,50.10
2022-10-14T05:43:12.430Z,50.60
2022-10-14T05:45:23.404Z,49.90
2022-10-14T05:47:32.630Z,49.20
2022-10-14T05:49:48.110Z,50.50
2022-10-14T05:51:55.594Z,51.90
2022-10-14T05:54:05.188Z,50.70
2022-10-14T05:56:13.593Z,50.30
2022-10-14T05:58:20.569Z,50.30
2022-10-14T06:00:28.241Z,51.20
2022-10-14T06:02:42.573Z,50.00
2022-10-14T06:04:52.565Z,51.40
2022-10-14T06:07:00.252Z,50.20
2022-10-14T06:09:11.810Z,49.70
2022-10-14T06:11:19.430Z,49.10
2022-10-14T06:13:26.973Z,49.90
2022-10-14T06:15:34.869Z,50.50
2022-10-14T06:17:42.156Z,50.10
2022-10-14T06:19:49.595Z,46.50
2022-10-14T06:21:56.925Z,47.90
2022-10-14T06:24:04.208Z,48.90
2022-10-14T06:26:13.028Z,49.20
2022-10-14T06:28:20.223Z,50.10
2022-10-14T06:30:27.238Z,50.00
2022-10-14T06:32:34.783Z,49.90
2022-10-14T06:34:41.869Z,48.50
2022-10-14T06:36:48.991Z,47.60
2022-10-14T06:38:56.016Z,47.60
2022-10-14T06:41:02.995Z,47.70
2022-10-14T06:43:11.870Z,47.60
2022-10-14T06:45:18.790Z,48.30
2022-10-14T06:47:25.726Z,48.70
2022-10-14T06:49:32.744Z,47.80
2022-10-14T06:51:40.849Z,48.30
2022-10-14T06:53:47.722Z,47.30
2022-10-14T06:56:02.383Z,48.40
2022-10-14T06:58:11.351Z,48.70
2022-10-14T07:00:19.256Z,48.80
2022-10-14T07:02:26.124Z,49.00
2022-10-14T07:04:33.217Z,47.20
2022-10-14T07:06:41.246Z,47.20
2022-10-14T07:08:48.234Z,48.20
2022-10-14T07:10:55.269Z,49.30
2022-10-14T07:13:02.442Z,49.60
2022-10-14T07:15:12.340Z,48.80
2022-10-14T07:17:20.127Z,50.60
2022-10-14T07:19:27.826Z,49.30
2022-10-14T07:21:35.011Z,50.90
2022-10-14T07:23:42.293Z,50.60
2022-10-14T07:25:49.731Z,51.80
2022-10-14T07:27:56.861Z,50.30
2022-10-14T07:30:04.253Z,49.40
2022-10-14T07:32:12.918Z,50.30
2022-10-14T07:34:19.995Z,51.30
2022-10-14T07:36:27.275Z,52.70
2022-10-14T07:38:34.870Z,52.80
2022-10-14T07:40:42.104Z,53.50
2022-10-14T07:42:49.694Z,54.70
2022-10-14T07:44:58.570Z,54.60
2022-10-14T07:47:06.415Z,54.00
2022-10-14T07:49:17.368Z,53.30
2022-10-14T07:51:24.313Z,54.60
2022-10-14T07:53:31.693Z,55.00
2022-10-14T07:55:38.777Z,55.40
2022-10-14T07:57:45.958Z,55.20
2022-10-14T07:59:53.493Z,54.30
2022-10-14T08:02:00.500Z,54.00
2022-10-14T08:04:07.653Z,54.80
2022-10-14T08:06:17.364Z,55.00
2022-10-14T08:08:25.345Z,55.70
2022-10-14T08:10:33.452Z,56.40
2022-10-14T08:12:40.530Z,56.60
2022-10-14T08:14:47.555Z,56.10
2022-10-14T08:16:54.379Z,55.50
2022-10-14T08:19:03.810Z,55.40
2022-10-14T08:21:10.741Z,55.20
2022-10-14T08:23:19.972Z,55.90
2022-10-14T08:25:27.255Z,57.00
2022-10-14T08:27:34.795Z,58.00
2022-10-14T08:29:41.818Z,57.90
2022-10-14T08:31:48.641Z,56.80
2022-10-14T08:33:55.620Z,54.60
2022-10-14T08:36:02.458Z,54.30
2022-10-14T08:38:09.523Z,54.20
2022-10-14T08:40:19.896Z,54.80
2022-10-14T08:42:40.320Z,54.70
2022-10-14T08:44:50.677Z,55.70
2022-10-14T08:47:01.188Z,55.80
2022-10-14T08:49:15.791Z,56.60
2022-10-14T08:51:24.713Z,57.70
2022-10-14T08:53:37.428Z,58.50
2022-10-14T08:55:48.654Z,58.80
2022-10-14T08:57:58.800Z,58.80
2022-10-14T09:00:07.980Z,59.40
2022-10-14T09:02:25.607Z,59.20
2022-10-14T09:04:41.291Z,59.90
2022-10-14T09:06:50.623Z,60.80
2022-10-14T09:09:03.231Z,61.50
2022-10-14T09:11:16.096Z,61.90
2022-10-14T09:13:35.513Z,62.00
2022-10-14T09:15:45.462Z,61.90
2022-10-14T09:18:02.525Z,62.00
2022-10-14T09:20:20.590Z,61.90
2022-10-14T09:22:30.355Z,61.80
2022-10-14T09:24:40.247Z,61.40
2022-10-14T09:26:50.737Z,61.70
2022-10-14T09:28:57.886Z,61.60
2022-10-14T09:31:04.964Z,61.80
2022-10-14T09:33:21.877Z,61.40
2022-10-14T09:35:32.695Z,61.40
2022-10-14T09:37:40.593Z,60.70
2022-10-14T09:39:47.621Z,59.20
2022-10-14T09:42:02.685Z,58.50
2022-10-14T09:44:24.256Z,58.60
2022-10-14T09:46:31.131Z,58.00
2022-10-14T09:51:02.287Z,59.00
2022-10-14T09:53:26.628Z,58.60
2022-10-14T09:55:36.935Z,58.70
2022-10-14T09:57:52.309Z,58.30
2022-10-14T10:00:03.420Z,57.90
2022-10-14T10:02:25.656Z,58.00
2022-10-14T10:04:39.498Z,57.70
2022-10-14T10:06:56.148Z,57.60
2022-10-14T10:09:03.227Z,58.10
2022-10-14T10:11:12.303Z,57.90
2022-10-14T10:13:36.127Z,57.60
2022-10-14T10:15:43.511Z,57.40
2022-10-14T10:17:51.668Z,58.40
2022-10-14T10:20:13.489Z,59.00
2022-10-14T10:22:27.330Z,59.50
2022-10-14T10:24:34.254Z,59.80
2022-10-14T10:26:41.283Z,59.80
2022-10-14T10:28:53.371Z,59.80
2022-10-14T10:31:07.573Z,59.70
2022-10-14T10:33:29.298Z,59.70
2022-10-14T10:35:51.175Z,60.10
2022-10-14T10:38:07.676Z,61.90
2022-10-14T10:40:37.551Z,63.90
2022-10-14T10:42:56.647Z,64.10
2022-10-14T10:45:17.143Z,65.20
2022-10-14T10:47:39.226Z,64.70
2022-10-14T10:50:03.048Z,66.80
2022-10-14T10:52:21.774Z,68.00
2022-10-14T10:54:40.041Z,67.70
2022-10-14T10:56:51.625Z,67.90
2022-10-14T10:59:11.273Z,70.00
2022-10-14T11:01:39.218Z,71.50
2022-10-14T11:04:01.657Z,71.30
2022-10-14T11:06:14.162Z,72.40
2022-10-14T11:08:59.401Z,73.30
2022-10-14T11:11:34.068Z,75.00
2022-10-14T11:13:49.946Z,73.10
2022-10-14T11:16:06.458Z,73.90
2022-10-14T11:18:25.765Z,75.30
2022-10-14T11:20:43.190Z,75.40
2022-10-14T11:23:00.611Z,76.60
2022-10-14T11:25:17.678Z,76.90
2022-10-14T11:27:31.378Z,77.30
2022-10-14T11:29:57.684Z,77.30
2022-10-14T11:32:12.262Z,78.60
2022-10-14T11:34:38.570Z,78.00
2022-10-14T11:36:54.303Z,77.40
2022-10-14T11:39:14.485Z,77.80
2022-10-14T11:41:29.041Z,79.00
2022-10-14T11:43:50.408Z,78.90
2022-10-14T11:46:00.932Z,80.10
2022-10-14T11:48:20.797Z,80.20
2022-10-14T11:50:37.499Z,80.00
2022-10-14T11:52:50.159Z,80.10
2022-10-14T11:55:02.311Z,80.60
2022-10-14T11:57:14.303Z,81.10
2022-10-14T12:00:21.235Z,81.20
2022-10-14T12:02:41.957Z,81.60
2022-10-14T12:04:55.158Z,81.00
2022-10-14T12:07:07.969Z,81.80
2022-10-14T12:09:20.899Z,80.60
2022-10-14T12:11:34.448Z,80.70
2022-10-14T12:13:45.622Z,81.00
2022-10-14T12:15:55.766Z,81.70
2022-10-14T12:18:05.246Z,83.00
2022-10-14T12:20:23.245Z,82.80
2022-10-14T12:22:35.028Z,82.60
2022-10-14T12:24:45.439Z,82.50
2022-10-14T12:26:58.158Z,82.10
2022-10-14T12:29:07.747Z,82.30
2022-10-14T12:31:36.588Z,81.80
2022-10-14T12:34:20.045Z,81.70
2022-10-14T12:39:26.483Z,82.40
2022-10-14T12:41:41.546Z,83.10
2022-10-14T12:44:03.944Z,82.40
2022-10-14T12:46:16.692Z,82.90
2022-10-14T12:48:27.541Z,82.90
2022-10-14T12:50:38.761Z,83.60
2022-10-14T12:52:50.428Z,84.40
2022-10-14T12:55:01.198Z,84.90
2022-10-14T12:57:21.807Z,85.00
2022-10-14T12:59:33.267Z,84.50
2022-10-14T13:01:41.750Z,83.90
2022-10-14T13:03:56.269Z,84.20
2022-10-14T13:06:31.945Z,84.60
2022-10-14T13:08:39.940Z,85.60
2022-10-14T13:10:51.853Z,84.30
2022-10-14T13:13:01.813Z,84.00
2022-10-14T13:15:26.640Z,83.60
2022-10-14T13:17:47.827Z,84.20
2022-10-14T13:19:55.172Z,86.40
2022-10-14T13:22:03.388Z,86.90
2022-10-14T13:24:20.026Z,87.00
2022-10-14T13:26:40.108Z,87.30
2022-10-14T13:28:57.708Z,87.50
2022-10-14T13:33:28.278Z,88.00
2022-10-14T13:35:38.925Z,87.80
2022-10-14T13:37:49.180Z,88.30
2022-10-14T13:39:56.464Z,88.30
2022-10-14T13:42:10.354Z,87.90
2022-10-14T13:44:17.230Z,87.70
2022-10-14T13:46:30.918Z,87.40
2022-10-14T13:48:40.400Z,86.90
2022-10-14T13:50:49.986Z,87.30
2022-10-14T13:53:00.904Z,88.40
2022-10-14T13:55:18.632Z,88.80
2022-10-14T13:57:53.601Z,89.30
2022-10-14T14:00:39.602Z,89.70
2022-10-14T14:02:28.359Z,90.60
2022-10-14T14:04:42.245Z,90.90
2022-10-14T14:07:03.483Z,91.30
2022-10-14T14:09:23.593Z,91.70
2022-10-14T14:11:32.770Z,91.90
2022-10-14T14:14:01.184Z,91.80
2022-10-14T14:16:09.674Z,90.70
2022-10-14T14:18:38.421Z,89.80
2022-10-14T14:21:00.945Z,89.40
2022-10-14T14:23:08.123Z,89.00
2022-10-14T14:27:54.230Z,88.80
2022-10-14T14:30:03.306Z,89.70
2022-10-14T14:32:15.660Z,89.70
2022-10-14T14:34:25.758Z,89.40
2022-10-14T14:36:50.200Z,89.20
2022-10-14T14:38:59.732Z,89.00
2022-10-14T14:41:08.705Z,88.60
2022-10-14T14:43:15.937Z,88.50
2022-10-14T14:45:26.959Z,88.40
2022-10-14T14:47:34.601Z,88.40
2022-10-14T14:49:42.758Z,88.50
2022-10-14T14:51:50.401Z,88.80
2022-10-14T14:53:58.710Z,89.40
2022-10-14T14:56:11.956Z,89.80
2022-10-14T14:58:35.802Z,90.10
2022-10-14T15:00:50.973Z,90.60
2022-10-14T15:03:03.428Z,90.80
2022-10-14T15:05:12.990Z,90.90
2022-10-14T15:07:22.552Z,90.80
2022-10-14T15:09:38.438Z,90.80
2022-10-14T15:11:54.121Z,90.90
2022-10-14T15:14:01.353Z,91.00
2022-10-14T15:16:10.942Z,91.10
2022-10-14T15:18:23.036Z,91.50
2022-10-14T15:20:34.264Z,91.40
2022-10-14T15:22:41.853Z,91.40
2022-10-14T15:25:10.438Z,91.50
2022-10-14T15:27:49.773Z,91.40
2022-10-14T15:30:21.020Z,91.60
2022-10-14T15:32:29.736Z,91.40
2022-10-14T15:34:36.764Z,91.40
2022-10-14T15:36:44.102Z,91.70
2022-10-14T15:38:50.974Z,91.40
2022-10-14T15:40:58.156Z,91.30
2022-10-14T15:43:05.288Z,91.20
2022-10-14T15:45:13.287Z,91.20
2022-10-14T15:47:21.750Z,91.50
2022-10-14T15:49:34.715Z,91.60
2022-10-14T15:51:41.485Z,91.40
2022-10-14T15:53:48.516Z,91.60
2022-10-14T15:55:56.517Z,91.80
2022-10-14T15:58:03.495Z,91.60
2022-10-14T16:00:11.650Z,91.70
2022-10-14T16:02:21.799Z,91.30
2022-10-14T16:04:31.544Z,91.20
2022-10-14T16:06:39.595Z,91.40
2022-10-14T16:08:47.493Z,91.60
2022-10-14T16:10:56.004Z,91.70
2022-10-14T16:13:02.984Z,91.60
2022-10-14T16:15:25.574Z,91.60
2022-10-14T16:17:33.011Z,91.50
2022-10-14T16:19:41.472Z,91.80
2022-10-14T16:21:51.930Z,92.00
2022-10-14T16:23:59.824Z,91.90
2022-10-14T16:26:07.523Z,92.10
2022-10-14T16:28:15.343Z,92.90
2022-10-14T16:30:22.296Z,93.70
2022-10-14T16:32:29.324Z,94.00
2022-10-14T16:34:37.171Z,93.80
2022-10-14T16:36:45.734Z,93.80
2022-10-14T16:38:52.968Z,93.80
2022-10-14T16:41:00.662Z,93.20
2022-10-14T16:43:07.690Z,93.00
2022-10-14T16:45:15.332Z,93.10
2022-10-14T16:47:23.404Z,93.00
2022-10-14T16:49:32.411Z,93.30
2022-10-14T16:51:39.847Z,93.40
2022-10-14T16:53:49.997Z,92.80
2022-10-14T16:56:00.558Z,92.80
2022-10-14T16:58:07.844Z,92.70
2022-10-14T17:00:16.110Z,92.30
2022-10-14T17:02:23.332Z,91.60
2022-10-14T17:04:30.873Z,90.70
2022-10-14T17:06:37.644Z,90.20
2022-10-14T17:08:44.980Z,89.10
2022-10-14T17:10:53.497Z,88.50
2022-10-14T17:13:00.265Z,88.20
2022-10-14T17:15:10.314Z,88.50
2022-10-14T17:17:18.723Z,88.60
2022-10-14T17:19:25.650Z,88.60
2022-10-14T17:21:32.885Z,88.60
2022-10-14T17:23:42.213Z,88.90
2022-10-14T17:25:49.396Z,88.90
2022-10-14T17:27:58.033Z,88.90
2022-10-14T17:30:05.142Z,88.90
2022-10-14T17:32:12.016Z,89.50
2022-10-14T17:34:19.248Z,90.30
2022-10-14T17:36:28.785Z,91.00
2022-10-14T17:38:36.275Z,92.20
2022-10-14T17:40:43.251Z,92.80
2022-10-14T17:42:51.455Z,93.10
2022-10-14T17:45:00.092Z,93.30
2022-10-14T17:47:06.997Z,94.00
2022-10-14T17:49:14.129Z,93.80
2022-10-14T17:51:22.179Z,93.70
2022-10-14T17:53:29.155Z,93.90
2022-10-14T17:55:39.205Z,94.20
2022-10-14T17:57:46.029Z,94.10
2022-10-14T17:59:52.803Z,93.80
2022-10-14T18:02:03.351Z,93.70
2022-10-14T18:04:10.898Z,93.50
2022-10-14T18:06:19.622Z,92.90
2022-10-14T18:08:26.700Z,91.70
2022-10-14T18:10:33.572Z,90.90
2022-10-14T18:12:40.755Z,90.40
2022-10-14T18:14:47.680Z,90.20
2022-10-14T18:16:54.913Z,89.30
2022-10-14T18:19:06.600Z,88.30
2022-10-14T18:21:13.832Z,89.30
2022-10-14T18:23:20.808Z,91.10
2022-10-14T18:25:27.785Z,90.30
2022-10-14T18:27:34.660Z,89.00
2022-10-14T18:29:41.739Z,88.50
2022-10-14T18:31:48.596Z,88.20
2022-10-14T18:33:56.870Z,88.90
2022-10-14T18:36:05.692Z,89.10
2022-10-14T18:38:12.615Z,89.20
2022-10-14T18:40:19.440Z,89.30
2022-10-14T18:42:26.583Z,88.60
2022-10-14T18:44:33.856Z,86.80
2022-10-14T18:46:41.705Z,85.90
2022-10-14T18:48:49.549Z,85.30
2022-10-14T18:51:02.063Z,85.80
2022-10-14T18:53:10.521Z,86.40
2022-10-14T18:55:17.544Z,86.30
2022-10-14T18:57:24.675Z,85.90
2022-10-14T18:59:32.010Z,85.40
2022-10-14T19:01:39.386Z,85.20
2022-10-14T19:03:48.216Z,84.80
2022-10-14T19:05:55.398Z,84.80
2022-10-14T19:08:02.378Z,84.00
2022-10-14T19:10:12.013Z,84.20
2022-10-14T19:12:35.426Z,83.90
2022-10-14T19:14:42.146Z,82.30
2022-10-14T19:16:50.710Z,80.20
2022-10-14T19:18:58.356Z,79.90
2022-10-14T19:21:10.142Z,80.60
2022-10-14T19:23:16.915Z,81.10
2022-10-14T19:25:25.324Z,82.20
2022-10-14T19:27:32.355Z,83.80
2022-10-14T19:29:39.279Z,84.30
2022-10-14T19:31:46.616Z,85.30
2022-10-14T19:33:53.798Z,85.90
2022-10-14T19:36:01.796Z,85.70
2022-10-14T19:38:08.670Z,85.10
2022-10-14T19:40:18.727Z,83.40
2022-10-14T19:42:30.100Z,82.40
2022-10-14T19:44:37.590Z,81.40
2022-10-14T19:46:45.026Z,81.70
2022-10-14T19:48:52.105Z,81.40
2022-10-14T19:51:06.134Z,81.60
2022-10-14T19:53:14.200Z,81.80
2022-10-14T19:55:21.330Z,80.30
2022-10-14T19:57:30.303Z,79.80
2022-10-14T19:59:37.434Z,79.90
2022-10-14T20:01:44.705Z,79.50
2022-10-14T20:03:51.745Z,79.10
2022-10-14T20:06:05.182Z,78.30
2022-10-14T20:08:12.612Z,77.60
2022-10-14T20:10:19.538Z,77.90
2022-10-14T20:12:26.676Z,79.90
2022-10-14T20:14:35.282Z,82.40
2022-10-14T20:16:42.310Z,83.10
2022-10-14T20:18:49.185Z,83.50
2022-10-14T20:20:57.645Z,84.40
2022-10-14T20:23:04.573Z,85.00
2022-10-14T20:25:12.675Z,85.40
2022-10-14T20:27:19.651Z,85.10
2022-10-14T20:29:26.783Z,78.90
2022-10-14T20:31:35.464Z,78.10
2022-10-14T20:33:42.988Z,78.20
2022-10-14T20:35:49.864Z,77.80
2022-10-14T20:37:57.148Z,78.20
2022-10-14T20:40:04.021Z,77.00
2022-10-14T20:42:11.919Z,75.60
2022-10-14T20:44:23.764Z,74.90
2022-10-14T20:46:30.073Z,75.30
2022-10-14T20:48:39.813Z,75.90
2022-10-14T20:50:46.841Z,76.90
2022-10-14T20:52:54.282Z,77.40
2022-10-14T20:55:01.053Z,77.50
2022-10-14T20:57:08.234Z,78.10
2022-10-14T20:59:16.542Z,77.80
2022-10-14T21:01:23.849Z,78.60
2022-10-14T21:03:30.956Z,78.70
2022-10-14T21:05:41.823Z,79.20
2022-10-14T21:07:48.646Z,79.70
2022-10-14T21:09:56.035Z,80.10
2022-10-14T21:12:02.862Z,79.90
2022-10-14T21:14:10.088Z,80.10
2022-10-14T21:16:18.601Z,78.50
2022-10-14T21:18:26.038Z,77.80
2022-10-14T21:20:33.118Z,77.50
2022-10-14T21:22:41.938Z,77.70
2022-10-14T21:24:49.120Z,78.40
2022-10-14T21:26:57.120Z,78.50
2022-10-14T21:29:04.918Z,79.40
2022-10-14T21:31:16.094Z,79.50
2022-10-14T21:33:26.180Z,79.90
2022-10-14T21:35:33.274Z,80.60
2022-10-14T21:37:42.194Z,81.40
2022-10-14T21:39:49.018Z,82.20
2022-10-14T21:41:56.301Z,82.60
2022-10-14T21:44:03.381Z,83.40
2022-10-14T21:46:12.251Z,84.20
2022-10-14T21:48:19.331Z,84.60
2022-10-14T21:50:26.255Z,84.90
2022-10-14T21:52:33.284Z,85.60
2022-10-14T21:54:41.746Z,84.00
2022-10-14T21:56:48.594Z,84.40
2022-10-14T21:58:55.954Z,83.00
2022-10-14T22:01:07.578Z,83.40
2022-10-14T22:03:14.672Z,82.80
2022-10-14T22:05:21.800Z,81.80
2022-10-14T22:07:28.674Z,81.10
2022-10-14T22:09:35.703Z,81.60
2022-10-14T22:11:45.549Z,82.10
2022-10-14T22:13:52.983Z,83.00
2022-10-14T22:16:00.066Z,82.60
2022-10-14T22:18:07.654Z,82.50
2022-10-14T22:20:15.143Z,83.00
2022-10-14T22:22:22.223Z,83.10
2022-10-14T22:24:29.406Z,82.80
2022-10-14T22:26:36.997Z,82.60
2022-10-14T22:28:46.408Z,83.10
2022-10-14T22:30:53.356Z,83.70
2022-10-14T22:33:00.518Z,84.20
2022-10-14T22:35:07.975Z,84.80
2022-10-14T22:37:14.951Z,85.80
2022-10-14T22:39:21.777Z,87.40
2022-10-14T22:41:34.849Z,86.30
2022-10-14T22:43:42.640Z,86.30
2022-10-14T22:45:51.599Z,87.30
2022-10-14T22:47:58.488Z,87.80
2022-10-14T22:50:05.877Z,87.80
2022-10-14T22:52:12.852Z,88.20
2022-10-14T22:54:20.187Z,88.60
2022-10-14T22:56:29.775Z,88.70
2022-10-14T22:58:36.807Z,88.80
2022-10-14T23:00:43.537Z,89.00
2022-10-14T23:02:52.450Z,89.80
2022-10-14T23:05:00.396Z,89.80
2022-10-14T23:07:07.883Z,89.60
2022-10-14T23:09:14.656Z,90.00
2022-10-14T23:11:23.476Z,90.20
2022-10-14T23:13:30.760Z,90.10
2022-10-14T23:15:38.299Z,90.20
2022-10-14T23:17:45.021Z,90.30
2022-10-14T23:19:53.944Z,91.00
2022-10-14T23:22:00.664Z,91.00
2022-10-14T23:24:09.588Z,91.50
2022-10-14T23:26:18.307Z,91.70
2022-10-14T23:28:25.215Z,92.00
2022-10-14T23:30:32.310Z,92.30
2022-10-14T23:32:39.029Z,92.50
2022-10-14T23:34:46.007Z,92.70
2022-10-14T23:39:06.976Z,92.50
2022-10-14T23:41:15.134Z,92.70
2022-10-14T23:43:22.210Z,92.20
2022-10-14T23:45:28.928Z,91.80
2022-10-14T23:47:36.214Z,91.80
2022-10-14T23:49:43.036Z,92.00
2022-10-14T23:51:53.443Z,91.80
2022-10-14T23:54:00.369Z,91.90
2022-10-14T23:56:08.522Z,92.20
2022-10-14T23:58:15.499Z,92.30
